Birgitte — LG6516 — position and weather

sailwx.info

Track history (hours):
 
Tides and Currents Weather Stations Pressure Air Temp Water Temp Dewpoint Dewpoint Depression Visibility Wind Speed Wind Dir Waves Ship Positions

Birgitte

Last reported at 2017-Oct-20 05:00 UTC. Time now 2017-Oct-20 05:25 UTC.
Position N 70°06' E 020°11'.

Length 11 m.

Type: Fishing. MMSI: 257218700.

Date/timePositionNaut miles runAvg speedWind from/ knotsBaromVisibWave heightAir tempDewpointWater temp
2017-Oct-20 05:00N 70°06' E 020°11'1 1.4
2017-Oct-20 04:29N 70°05' E 020°11'0 0.5
2017-Oct-20 03:47N 70°06' E 020°11'0 1.0
2017-Oct-20 03:30N 70°05' E 020°11'4 8.0
2017-Oct-20 03:00N 70°04' E 019°60'0 0.0
2017-Oct-20 02:30N 70°04' E 019°60'0 0.0
2017-Oct-20 02:00N 70°04' E 019°60'0 0.0
2017-Oct-20 01:30N 70°04' E 019°60'0 0.0
2017-Oct-20 01:00N 70°04' E 019°60'0 0.0
2017-Oct-20 00:30N 70°04' E 019°60'0 0.0
2017-Oct-20 00:00N 70°04' E 019°60'0 0.0
2017-Oct-19 23:30N 70°04' E 019°60'0 0.0
2017-Oct-19 23:00N 70°04' E 019°60'0 0.0
2017-Oct-19 22:30N 70°04' E 019°60'0 0.0
2017-Oct-19 22:00N 70°04' E 019°60'0 0.0
2017-Oct-19 21:30N 70°04' E 019°60'0 0.0
2017-Oct-19 21:00N 70°04' E 019°60'0 0.0
2017-Oct-19 20:30N 70°04' E 019°60'0 0.0
2017-Oct-19 20:00N 70°04' E 019°60'0 0.0
2017-Oct-19 19:30N 70°04' E 019°60'0 0.0
2017-Oct-19 19:00N 70°04' E 019°60'0 0.0
2017-Oct-19 18:30N 70°04' E 019°60'0 0.0
2017-Oct-19 18:00N 70°04' E 019°60'0 0.0
2017-Oct-19 17:30N 70°04' E 019°60'0 0.0
2017-Oct-19 17:00N 70°04' E 019°60'0 0.0
2017-Oct-19 16:30N 70°04' E 019°60'0 0.0
2017-Oct-19 16:00N 70°04' E 019°60'0 0.0
2017-Oct-19 15:30N 70°04' E 019°60'0 0.0
2017-Oct-19 15:00N 70°04' E 019°60'0 0.0
2017-Oct-19 14:30N 70°04' E 019°60'0 0.0
2017-Oct-19 14:00N 70°04' E 019°60'0 0.0
2017-Oct-19 13:29N 70°04' E 019°60'0 0.1
2017-Oct-19 12:58N 70°04' E 019°60'0 0.0
2017-Oct-19 12:30N 70°04' E 019°60'1 1.3
2017-Oct-19 12:00N 70°05' E 020°02'2 4.1
2017-Oct-19 11:30N 70°05' E 020°07'1 1.7
2017-Oct-19 10:59N 70°05' E 020°10'0 0.3
2017-Oct-19 10:29N 70°05' E 020°10'0 0.2
2017-Oct-19 10:00N 70°05' E 020°10'0 0.4
2017-Oct-19 09:29N 70°05' E 020°11'1 1.1
2017-Oct-19 08:59N 70°06' E 020°12'0 0.4
2017-Oct-19 08:30N 70°06' E 020°11'0 0.9
2017-Oct-19 08:00N 70°05' E 020°12'0 0.3
2017-Oct-19 07:30N 70°05' E 020°12'0 0.3
2017-Oct-19 07:00N 70°05' E 020°11'1 2.5
2017-Oct-19 06:30N 70°06' E 020°13'5 9.6
2017-Oct-19 06:00N 70°10' E 020°22'0 0.8
2017-Oct-19 05:30N 70°10' E 020°23'1 1.5
2017-Oct-19 05:00N 70°10' E 020°22'0 0.3
2017-Oct-19 04:30N 70°10' E 020°22'0 0.3
2017-Oct-19 03:59N 70°10' E 020°22'2 3.4
2017-Oct-19 03:30N 70°08' E 020°18'4 8.2
2017-Oct-19 03:00N 70°06' E 020°09'4 6.7
2017-Oct-19 02:29N 70°04' E 019°60'0 0.0
2017-Oct-19 01:59N 70°04' E 019°60'0 0.0
2017-Oct-19 01:29N 70°04' E 019°60'0 0.0
2017-Oct-19 00:59N 70°04' E 019°60'0 0.0
2017-Oct-19 00:29N 70°04' E 019°60'0 0.0
2017-Oct-18 23:59N 70°04' E 019°60'0 0.0
2017-Oct-18 23:29N 70°04' E 019°60'0 0.0
2017-Oct-18 22:59N 70°04' E 019°60'0 0.0
2017-Oct-18 22:29N 70°04' E 019°60'0 0.0
2017-Oct-18 21:59N 70°04' E 019°60'0 0.0
2017-Oct-18 21:29N 70°04' E 019°60'0 0.0
2017-Oct-18 20:59N 70°04' E 019°60'0 0.0
2017-Oct-18 20:29N 70°04' E 019°60'0 0.0
2017-Oct-18 19:59N 70°04' E 019°60'0 0.0
2017-Oct-18 19:29N 70°04' E 019°60'0 0.0
2017-Oct-18 18:59N 70°04' E 019°60'0 0.0
2017-Oct-18 18:29N 70°04' E 019°60'0 0.0
2017-Oct-18 17:59N 70°04' E 019°60'0 0.0
2017-Oct-18 17:29N 70°04' E 019°60'0 0.0
2017-Oct-18 16:59N 70°04' E 019°60'0 0.0
2017-Oct-18 16:29N 70°04' E 019°60'0 0.0
2017-Oct-18 15:59N 70°04' E 019°60'0 0.0
2017-Oct-18 15:29N 70°04' E 019°60'0 0.0
2017-Oct-18 14:59N 70°04' E 019°60'0 0.0
2017-Oct-18 13:59N 70°04' E 019°60'0 0.0
2017-Oct-18 13:29N 70°04' E 019°60'0 0.0
2017-Oct-18 12:59N 70°04' E 019°60'0 0.0
2017-Oct-18 12:29N 70°04' E 019°60'0 0.0
2017-Oct-18 11:59N 70°04' E 019°60'0 0.0
2017-Oct-18 11:29N 70°04' E 019°60'0 0.0
2017-Oct-18 10:59N 70°04' E 019°60'0 0.0
2017-Oct-18 10:29N 70°04' E 019°60'0 0.0
2017-Oct-18 09:59N 70°04' E 019°60'0 0.0
2017-Oct-18 09:29N 70°04' E 019°60'0 0.0
2017-Oct-18 08:59N 70°04' E 019°60'0 0.0
2017-Oct-18 08:29N 70°04' E 019°60'0 0.0
2017-Oct-18 07:59N 70°04' E 019°60'0 0.0
2017-Oct-18 07:29N 70°04' E 019°60'0 0.0
2017-Oct-18 06:59N 70°04' E 019°60'0 0.0
2017-Oct-18 06:29N 70°04' E 019°60'0 0.0
2017-Oct-18 05:59N 70°04' E 019°60'0 0.0
2017-Oct-18 05:29N 70°04' E 019°60'0 0.0
2017-Oct-18 04:59N 70°04' E 019°60'0 0.0
2017-Oct-18 04:26N 70°04' E 019°60'0 0.0
2017-Oct-18 03:59N 70°04' E 019°60'0 0.0
2017-Oct-18 03:29N 70°04' E 019°60'0 0.0
2017-Oct-18 02:59N 70°04' E 019°60'0 0.0
2017-Oct-18 02:29N 70°04' E 019°60'0 0.0
2017-Oct-18 01:59N 70°04' E 019°60'0 0.0
2017-Oct-18 01:29N 70°04' E 019°60'0 0.0
2017-Oct-18 00:59N 70°04' E 019°60'0 0.0
2017-Oct-18 00:29N 70°04' E 019°60'0 0.0
2017-Oct-17 23:59N 70°04' E 019°60'0 0.0
2017-Oct-17 23:29N 70°04' E 019°60'0 0.0
2017-Oct-17 22:59N 70°04' E 019°60'0 0.0
2017-Oct-17 22:29N 70°04' E 019°60'0 0.0
2017-Oct-17 21:59N 70°04' E 019°60'0 0.0
2017-Oct-17 21:29N 70°04' E 019°60'0 0.0
2017-Oct-17 20:59N 70°04' E 019°60'0 0.0
2017-Oct-17 20:29N 70°04' E 019°60'0 0.0
2017-Oct-17 19:59N 70°04' E 019°60'0 0.0
2017-Oct-17 19:29N 70°04' E 019°60'0 0.0
2017-Oct-17 18:59N 70°04' E 019°60'0 0.0
2017-Oct-17 18:29N 70°04' E 019°60'0 0.0
2017-Oct-17 17:59N 70°04' E 019°60'0 0.0
2017-Oct-17 17:29N 70°04' E 019°60'0 0.0
2017-Oct-17 16:59N 70°04' E 019°60'0 0.0
2017-Oct-17 16:29N 70°04' E 019°60'0 0.0
2017-Oct-17 15:59N 70°04' E 019°60'0 0.0
2017-Oct-17 15:28N 70°04' E 019°60'0 0.0
2017-Oct-17 14:58N 70°04' E 019°60'0 0.0
2017-Oct-17 14:28N 70°04' E 019°60'0 0.0
2017-Oct-17 13:58N 70°04' E 019°60'0 0.0
2017-Oct-17 13:28N 70°04' E 019°60'0 0.1
2017-Oct-17 13:00N 70°04' E 019°60'2 3.6
2017-Oct-17 12:30N 70°05' E 020°05'1 2.7
2017-Oct-17 12:00N 70°05' E 020°09'1 1.5
2017-Oct-17 11:29N 70°05' E 020°11'0 0.3
2017-Oct-17 11:00N 70°05' E 020°11'0 1.0
2017-Oct-17 10:30N 70°05' E 020°12'0 0.5
2017-Oct-17 10:00N 70°05' E 020°12'0 0.5
2017-Oct-17 09:29N 70°05' E 020°12'0 0.6
2017-Oct-17 09:00N 70°05' E 020°12'0 0.6
2017-Oct-17 08:30N 70°06' E 020°12'4 8.0
2017-Oct-17 08:00N 70°10' E 020°14'1 1.3
2017-Oct-17 07:30N 70°10' E 020°14'0 0.8
2017-Oct-17 07:00N 70°11' E 020°14'3 5.0
2017-Oct-17 06:30N 70°10' E 020°21'0 0.4
2017-Oct-17 06:00N 70°10' E 020°22'0 0.7
2017-Oct-17 05:30N 70°10' E 020°22'0 0.5
2017-Oct-17 05:00N 70°10' E 020°22'1 1.6
2017-Oct-17 04:30N 70°11' E 020°23'0 0.2
2017-Oct-17 04:00N 70°11' E 020°23'4 7.9
2017-Oct-17 03:29N 70°08' E 020°15'4 8.3
2017-Oct-17 03:00N 70°05' E 020°06'2 4.3
2017-Oct-17 02:28N 70°04' E 019°60'0 0.0
2017-Oct-17 01:58N 70°04' E 019°60'0 0.0
2017-Oct-17 01:28N 70°04' E 019°60'0 0.0
2017-Oct-17 00:58N 70°04' E 019°60'0 0.0
2017-Oct-17 00:28N 70°04' E 019°60'0 0.0
2017-Oct-16 23:58N 70°04' E 019°60'0 0.0
2017-Oct-16 23:28N 70°04' E 019°60'0 0.0
2017-Oct-16 22:58N 70°04' E 019°60'0 0.0
2017-Oct-16 22:28N 70°04' E 019°60'0 0.0
2017-Oct-16 22:01N 70°04' E 019°60'0 0.0
2017-Oct-16 21:31N 70°04' E 019°60'0 0.0
2017-Oct-16 21:01N 70°04' E 019°60'0 0.0
2017-Oct-16 20:28N 70°04' E 019°60'0 0.0
2017-Oct-16 20:01N 70°04' E 019°60'0 0.0
2017-Oct-16 19:31N 70°04' E 019°60'0 0.0
2017-Oct-16 19:00N 70°04' E 019°60'0 0.0
2017-Oct-16 18:31N 70°04' E 019°60'0 0.0
2017-Oct-16 18:01N 70°04' E 019°60'0 0.0
2017-Oct-16 17:30N 70°04' E 019°60'0 0.0
2017-Oct-16 17:01N 70°04' E 019°60'0 0.0
2017-Oct-16 16:31N 70°04' E 019°60'0 0.0
2017-Oct-16 16:01N 70°04' E 019°60'0 0.0
2017-Oct-16 15:31N 70°04' E 019°60'3 5.1
2017-Oct-16 15:00N 70°05' E 020°07'7 7.4
2017-Oct-16 14:00N 70°12' E 019°55'4 8.2
2017-Oct-16 13:31N 70°13' E 019°44'0 0.7
2017-Oct-16 13:00N 70°14' E 019°44'0 0.0
2017-Oct-16 12:30N 70°14' E 019°44'0 0.0
2017-Oct-16 12:00N 70°14' E 019°44'0 0.0
2017-Oct-16 11:30N 70°14' E 019°44'0 0.0
2017-Oct-16 11:00N 70°14' E 019°44'0 0.0
2017-Oct-16 10:29N 70°14' E 019°44'0 0.0
2017-Oct-16 09:59N 70°14' E 019°44'0 0.0
2017-Oct-16 09:26N 70°14' E 019°44'0 0.0
2017-Oct-16 08:59N 70°14' E 019°44'0 0.0
2017-Oct-16 08:29N 70°14' E 019°44'3 6.3
2017-Oct-16 08:00N 70°13' E 019°52'4 8.3
2017-Oct-16 07:30N 70°09' E 019°59'4 9.1
2017-Oct-16 07:00N 70°06' E 020°08'3 6.6
2017-Oct-16 06:29N 70°04' E 019°60'0 0.0
2017-Oct-16 06:00N 70°04' E 019°60'0 0.1
2017-Oct-16 05:26N 70°04' E 019°60'0 0.0
2017-Oct-16 04:59N 70°04' E 019°60'0 0.0
2017-Oct-16 04:29N 70°04' E 019°60'0 0.0
2017-Oct-16 03:59N 70°04' E 019°60'0 0.0
2017-Oct-16 03:29N 70°04' E 019°60'0 0.0
2017-Oct-16 02:59N 70°04' E 019°60'0 0.0
2017-Oct-16 02:29N 70°04' E 019°60'0 0.0
2017-Oct-16 01:59N 70°04' E 019°60'0 0.0
2017-Oct-16 01:29N 70°04' E 019°60'0 0.0
2017-Oct-16 00:59N 70°04' E 019°60'0 0.0
2017-Oct-16 00:29N 70°04' E 019°60'0 0.0
2017-Oct-15 23:59N 70°04' E 019°60'0 0.0
2017-Oct-15 23:29N 70°04' E 019°60'0 0.0
2017-Oct-15 22:59N 70°04' E 019°60'0 0.0
2017-Oct-15 22:29N 70°04' E 019°60'0 0.0
2017-Oct-15 21:59N 70°04' E 019°60'0 0.0
2017-Oct-15 21:30N 70°04' E 019°60'0 0.0
2017-Oct-15 20:59N 70°04' E 019°60'0 0.0
2017-Oct-15 20:29N 70°04' E 019°60'0 0.0
2017-Oct-15 19:59N 70°04' E 019°60'0 0.0
2017-Oct-15 19:29N 70°04' E 019°60'0 0.0
2017-Oct-15 18:59N 70°04' E 019°60'0 0.0
2017-Oct-15 18:29N 70°04' E 019°60'0 0.0
2017-Oct-15 17:59N 70°04' E 019°60'0 0.0
2017-Oct-15 17:29N 70°04' E 019°60'0 0.0
2017-Oct-15 16:59N 70°04' E 019°60'0 0.0
2017-Oct-15 16:29N 70°04' E 019°60'0 0.0
2017-Oct-15 15:59N 70°04' E 019°60'0 0.0
2017-Oct-15 15:29N 70°04' E 019°60'0 0.0
2017-Oct-15 14:59N 70°04' E 019°60'0 0.0
2017-Oct-15 13:59N 70°04' E 019°60'2 3.5
2017-Oct-15 13:30N 70°05' E 020°04'1 2.7
2017-Oct-15 13:00N 70°05' E 020°08'1 1.8
2017-Oct-15 12:30N 70°05' E 020°11'0 0.1
2017-Oct-15 12:00N 70°05' E 020°11'0 0.7
2017-Oct-15 11:30N 70°05' E 020°12'0 0.4
2017-Oct-15 11:00N 70°05' E 020°11'0 0.3
2017-Oct-15 10:29N 70°05' E 020°12'0 0.3
2017-Oct-15 10:00N 70°05' E 020°11'4 7.4
2017-Oct-15 09:30N 70°09' E 020°13'1 2.4
2017-Oct-15 09:00N 70°10' E 020°14'0 0.6
2017-Oct-15 08:30N 70°10' E 020°15'0 0.5
2017-Oct-15 08:00N 70°11' E 020°14'2 4.8
2017-Oct-15 07:29N 70°10' E 020°21'0 0.6
2017-Oct-15 06:59N 70°10' E 020°22'0 0.4
2017-Oct-15 06:29N 70°10' E 020°22'0 0.3
2017-Oct-15 06:00N 70°10' E 020°22'1 1.4
2017-Oct-15 05:30N 70°11' E 020°23'1 1.7
2017-Oct-15 05:00N 70°10' E 020°22'4 9.1
2017-Oct-15 04:30N 70°07' E 020°12'4 8.3
2017-Oct-15 04:00N 70°05' E 020°01'1 1.3
2017-Oct-15 03:29N 70°04' E 019°60'0 0.0
2017-Oct-15 02:59N 70°04' E 019°60'0 0.0
2017-Oct-15 02:29N 70°04' E 019°60'0 0.0
2017-Oct-15 01:58N 70°04' E 019°60'0 0.0
2017-Oct-15 01:28N 70°04' E 019°60'0 0.0
2017-Oct-15 00:59N 70°04' E 019°60'0 0.0
2017-Oct-15 00:28N 70°04' E 019°60'0 0.0
2017-Oct-14 23:59N 70°04' E 019°60'0 0.0
2017-Oct-14 23:29N 70°04' E 019°60'0 0.0
2017-Oct-14 22:58N 70°04' E 019°60'0 0.0
2017-Oct-14 22:29N 70°04' E 019°60'0 0.0
2017-Oct-14 21:58N 70°04' E 019°60'0 0.0
2017-Oct-14 21:28N 70°04' E 019°60'0 0.0
2017-Oct-14 20:59N 70°04' E 019°60'0 0.0
2017-Oct-14 20:29N 70°04' E 019°60'0 0.0
2017-Oct-14 19:59N 70°04' E 019°60'0 0.0
2017-Oct-14 19:29N 70°04' E 019°60'0 0.0
2017-Oct-14 18:58N 70°04' E 019°60'0 0.0
2017-Oct-14 18:28N 70°04' E 019°60'0 0.0
2017-Oct-14 17:59N 70°04' E 019°60'0 0.0
2017-Oct-14 17:29N 70°04' E 019°60'0 0.0
2017-Oct-14 16:59N 70°04' E 019°60'0 0.0
2017-Oct-14 16:29N 70°04' E 019°60'0 0.0
2017-Oct-14 15:58N 70°04' E 019°60'0 0.0
2017-Oct-14 15:29N 70°04' E 019°60'0 0.0
2017-Oct-14 14:58N 70°04' E 019°60'0 0.0
2017-Oct-14 14:29N 70°04' E 019°60'0 0.0
2017-Oct-14 13:58N 70°04' E 019°60'0 0.0
2017-Oct-14 13:28N 70°04' E 019°60'0 0.0
2017-Oct-14 12:59N 70°04' E 019°60'0 0.0
2017-Oct-14 12:29N 70°04' E 019°60'0 0.0
2017-Oct-14 11:59N 70°04' E 019°60'0 0.0
2017-Oct-14 11:29N 70°04' E 019°60'0 0.0
2017-Oct-14 10:59N 70°04' E 019°60'0 0.0
2017-Oct-14 10:26N 70°04' E 019°60'0 0.0
2017-Oct-14 09:58N 70°04' E 019°60'0 0.0
2017-Oct-14 09:29N 70°04' E 019°60'0 0.0
2017-Oct-14 08:58N 70°04' E 019°60'0 0.0
2017-Oct-14 08:29N 70°04' E 019°60'0 0.0
2017-Oct-14 07:59N 70°04' E 019°60'0 0.0
2017-Oct-14 07:29N 70°04' E 019°60'0 0.0
2017-Oct-14 06:59N 70°04' E 019°60'0 0.0
2017-Oct-14 06:29N 70°04' E 019°60'0 0.0
2017-Oct-14 05:59N 70°04' E 019°60'0 0.0
2017-Oct-14 05:29N 70°04' E 019°60'0 0.0
2017-Oct-14 04:59N 70°04' E 019°60'0 0.0
2017-Oct-14 04:29N 70°04' E 019°60'0 0.0
2017-Oct-14 03:59N 70°04' E 019°60'0 0.0
2017-Oct-14 03:29N 70°04' E 019°60'0 0.0
2017-Oct-14 02:59N 70°04' E 019°60'0 0.0
2017-Oct-14 02:29N 70°04' E 019°60'0 0.0
2017-Oct-14 01:59N 70°04' E 019°60'0 0.0
2017-Oct-14 01:29N 70°04' E 019°60'0 0.0
2017-Oct-14 00:58N 70°04' E 019°60'0 0.0
2017-Oct-14 00:29N 70°04' E 019°60'0 0.0
2017-Oct-13 23:59N 70°04' E 019°60'0 0.0
2017-Oct-13 23:28N 70°04' E 019°60'0 0.0
2017-Oct-13 22:58N 70°04' E 019°60'0 0.0
2017-Oct-13 22:29N 70°04' E 019°60'0 0.0
2017-Oct-13 21:59N 70°04' E 019°60'0 0.0
2017-Oct-13 21:29N 70°04' E 019°60'0 0.0
2017-Oct-13 20:59N 70°04' E 019°60'0 0.0
2017-Oct-13 20:28N 70°04' E 019°60'0 0.0
2017-Oct-13 19:59N 70°04' E 019°60'0 0.0
2017-Oct-13 19:28N 70°04' E 019°60'0 0.0
2017-Oct-13 18:58N 70°04' E 019°60'0 0.0
2017-Oct-13 18:29N 70°04' E 019°60'0 0.0
2017-Oct-13 17:58N 70°04' E 019°60'0 0.0
2017-Oct-13 17:29N 70°04' E 019°60'0 0.0
2017-Oct-13 16:59N 70°04' E 019°60'0 0.0
2017-Oct-13 16:29N 70°04' E 019°60'0 0.0
2017-Oct-13 15:59N 70°04' E 019°60'0 0.0
2017-Oct-13 15:28N 70°04' E 019°60'0 0.0
2017-Oct-13 14:59N 70°04' E 019°60'0 0.0
2017-Oct-13 14:28N 70°04' E 019°60'0 0.0
2017-Oct-13 13:59N 70°04' E 019°60'0 0.0
2017-Oct-13 13:29N 70°04' E 019°60'0 0.0
2017-Oct-13 12:59N 70°04' E 019°60'0 0.0
2017-Oct-13 12:29N 70°04' E 019°60'0 0.1
2017-Oct-13 12:00N 70°04' E 019°60'1 2.2
2017-Oct-13 11:30N 70°05' E 020°03'2 3.9
2017-Oct-13 11:00N 70°05' E 020°08'1 1.9
2017-Oct-13 10:30N 70°05' E 020°11'0 0.9
2017-Oct-13 10:00N 70°05' E 020°12'0 0.4
2017-Oct-13 09:29N 70°05' E 020°12'0 0.3
2017-Oct-13 08:59N 70°05' E 020°12'0 0.6
2017-Oct-13 08:30N 70°05' E 020°11'4 7.2
2017-Oct-13 08:00N 70°09' E 020°13'6 0.4
2017-Oct-12 16:23N 70°04' E 019°60'0 0.0
2017-Oct-12 15:58N 70°04' E 019°60'0 0.0
2017-Oct-12 15:28N 70°04' E 019°60'0 0.0
2017-Oct-12 14:58N 70°04' E 019°60'0 0.0
2017-Oct-12 14:28N 70°04' E 019°60'0 0.0
2017-Oct-12 13:58N 70°04' E 019°60'0 0.0
2017-Oct-12 13:28N 70°04' E 019°60'0 0.0
2017-Oct-12 12:58N 70°04' E 019°60'0 0.0
2017-Oct-12 12:28N 70°04' E 019°60'0 0.0
2017-Oct-12 11:55N 70°04' E 019°60'0 0.0
2017-Oct-12 11:28N 70°04' E 019°60'0 0.0
2017-Oct-12 10:58N 70°04' E 019°60'0 0.0
2017-Oct-12 10:28N 70°04' E 019°60'0 0.0
2017-Oct-12 09:58N 70°04' E 019°60'0 0.0
2017-Oct-12 09:28N 70°04' E 019°60'0 0.0
2017-Oct-12 08:58N 70°04' E 019°60'0 0.1
2017-Oct-12 08:29N 70°04' E 019°60'0 0.0
2017-Oct-12 07:59N 70°04' E 019°60'0 0.1
2017-Oct-12 07:28N 70°04' E 019°60'0 0.0
2017-Oct-12 07:00N 70°04' E 019°60'0 0.0
2017-Oct-12 06:30N 70°04' E 019°60'0 0.0
2017-Oct-12 06:00N 70°04' E 019°60'0 0.0
2017-Oct-12 05:30N 70°04' E 019°60'0 0.0
2017-Oct-12 05:00N 70°04' E 019°60'0 0.0
2017-Oct-12 04:30N 70°04' E 019°60'0 0.0
2017-Oct-12 04:00N 70°04' E 019°60'0 0.0
2017-Oct-12 03:30N 70°04' E 019°60'0 0.0
2017-Oct-12 03:00N 70°04' E 019°60'0 0.0
2017-Oct-12 02:30N 70°04' E 019°60'0 0.0
2017-Oct-12 02:00N 70°04' E 019°60'0 0.0
2017-Oct-12 01:30N 70°04' E 019°60'0 0.0
2017-Oct-12 01:00N 70°04' E 019°60'0 0.0
2017-Oct-12 00:30N 70°04' E 019°60'0 0.0
2017-Oct-12 00:00N 70°04' E 019°60'0 0.0
2017-Oct-11 23:30N 70°04' E 019°60'0 0.0
2017-Oct-11 23:00N 70°04' E 019°60'0 0.0
2017-Oct-11 22:30N 70°04' E 019°60'0 0.0
2017-Oct-11 22:00N 70°04' E 019°60'0 0.0
2017-Oct-11 21:30N 70°04' E 019°60'0 0.0
2017-Oct-11 21:00N 70°04' E 019°60'0 0.0
2017-Oct-11 20:30N 70°04' E 019°60'0 0.0
2017-Oct-11 19:58N 70°04' E 019°60'0 0.0
2017-Oct-11 19:28N 70°04' E 019°60'0 0.0
2017-Oct-11 18:58N 70°04' E 019°60'0 0.0
2017-Oct-11 18:28N 70°04' E 019°60'0 0.0
2017-Oct-11 17:58N 70°04' E 019°60'0 0.0
2017-Oct-11 17:28N 70°04' E 019°60'0 0.0
2017-Oct-11 16:55N 70°04' E 019°60'0 0.0
2017-Oct-10 23:59N 70°04' E 019°59'0 0.0
2017-Oct-10 23:29N 70°04' E 019°59'0 0.0
2017-Oct-10 22:59N 70°04' E 019°59'0 0.0
2017-Oct-10 22:29N 70°04' E 019°59'0 0.0
2017-Oct-10 21:59N 70°04' E 019°59'0 0.0
2017-Oct-10 21:29N 70°04' E 019°59'0 0.0
2017-Oct-10 20:59N 70°04' E 019°59'0 0.0
2017-Oct-10 20:29N 70°04' E 019°59'0 0.0
2017-Oct-10 19:59N 70°04' E 019°59'0 0.0
2017-Oct-10 19:29N 70°04' E 019°59'0 0.0
2017-Oct-10 18:59N 70°04' E 019°59'0 0.0
2017-Oct-10 18:29N 70°04' E 019°59'0 0.0
2017-Oct-10 17:59N 70°04' E 019°59'0 0.0
2017-Oct-10 17:29N 70°04' E 019°59'0 0.0
2017-Oct-10 16:59N 70°04' E 019°59'0 0.0
2017-Oct-10 16:29N 70°04' E 019°59'0 0.0
2017-Oct-10 15:59N 70°04' E 019°59'0 0.0
2017-Oct-10 15:29N 70°04' E 019°59'0 0.0
2017-Oct-10 14:59N 70°04' E 019°59'0 0.0
2017-Oct-10 13:56N 70°04' E 019°59'0 0.0
2017-Oct-10 13:29N 70°04' E 019°59'0 0.0
2017-Oct-10 12:59N 70°04' E 019°59'0 0.0
2017-Oct-10 12:29N 70°04' E 019°59'0 0.0
2017-Oct-10 11:59N 70°04' E 019°59'0 0.0
2017-Oct-10 11:29N 70°04' E 019°59'0 0.0
2017-Oct-10 10:59N 70°04' E 019°59'0 0.0
2017-Oct-10 10:29N 70°04' E 019°59'0 0.0
2017-Oct-10 09:59N 70°04' E 019°59'0 0.0
2017-Oct-10 09:29N 70°04' E 019°59'0 0.0
2017-Oct-10 08:59N 70°04' E 019°59'0 0.0
2017-Oct-10 08:29N 70°04' E 019°59'0 0.0
2017-Oct-10 07:59N 70°04' E 019°59'0 0.0
2017-Oct-10 07:29N 70°04' E 019°59'0 0.0
2017-Oct-10 06:59N 70°04' E 019°59'0 0.0
2017-Oct-10 06:29N 70°04' E 019°59'0 0.0
2017-Oct-10 05:59N 70°04' E 019°59'0 0.0
2017-Oct-10 05:29N 70°04' E 019°59'  
Track history (hours):
 
Tides and Currents Weather Stations Pressure Air Temp Water Temp Dewpoint Dewpoint Depression Visibility Wind Speed Wind Dir Waves Ship Positions

Birgitte

Last reported at 2017-Oct-20 05:00 UTC. Time now 2017-Oct-20 05:25 UTC.
Position N 70°06' E 020°11'.

Length 11 m.

Type: Fishing. MMSI: 257218700.

Date/timePositionNaut miles runAvg speedWind from/ knotsBaromVisibWave heightAir tempDewpointWater temp
2017-Oct-20 05:00N 70°06' E 020°11'1 1.4
2017-Oct-20 04:29N 70°05' E 020°11'0 0.5
2017-Oct-20 03:47N 70°06' E 020°11'0 1.0
2017-Oct-20 03:30N 70°05' E 020°11'4 8.0
2017-Oct-20 03:00N 70°04' E 019°60'0 0.0
2017-Oct-20 02:30N 70°04' E 019°60'0 0.0
2017-Oct-20 02:00N 70°04' E 019°60'0 0.0
2017-Oct-20 01:30N 70°04' E 019°60'0 0.0
2017-Oct-20 01:00N 70°04' E 019°60'0 0.0
2017-Oct-20 00:30N 70°04' E 019°60'0 0.0
2017-Oct-20 00:00N 70°04' E 019°60'0 0.0
2017-Oct-19 23:30N 70°04' E 019°60'0 0.0
2017-Oct-19 23:00N 70°04' E 019°60'0 0.0
2017-Oct-19 22:30N 70°04' E 019°60'0 0.0
2017-Oct-19 22:00N 70°04' E 019°60'0 0.0
2017-Oct-19 21:30N 70°04' E 019°60'0 0.0
2017-Oct-19 21:00N 70°04' E 019°60'0 0.0
2017-Oct-19 20:30N 70°04' E 019°60'0 0.0
2017-Oct-19 20:00N 70°04' E 019°60'0 0.0
2017-Oct-19 19:30N 70°04' E 019°60'0 0.0
2017-Oct-19 19:00N 70°04' E 019°60'0 0.0
2017-Oct-19 18:30N 70°04' E 019°60'0 0.0
2017-Oct-19 18:00N 70°04' E 019°60'0 0.0
2017-Oct-19 17:30N 70°04' E 019°60'0 0.0
2017-Oct-19 17:00N 70°04' E 019°60'0 0.0
2017-Oct-19 16:30N 70°04' E 019°60'0 0.0
2017-Oct-19 16:00N 70°04' E 019°60'0 0.0
2017-Oct-19 15:30N 70°04' E 019°60'0 0.0
2017-Oct-19 15:00N 70°04' E 019°60'0 0.0
2017-Oct-19 14:30N 70°04' E 019°60'0 0.0
2017-Oct-19 14:00N 70°04' E 019°60'0 0.0
2017-Oct-19 13:29N 70°04' E 019°60'0 0.1
2017-Oct-19 12:58N 70°04' E 019°60'0 0.0
2017-Oct-19 12:30N 70°04' E 019°60'1 1.3
2017-Oct-19 12:00N 70°05' E 020°02'2 4.1
2017-Oct-19 11:30N 70°05' E 020°07'1 1.7
2017-Oct-19 10:59N 70°05' E 020°10'0 0.3
2017-Oct-19 10:29N 70°05' E 020°10'0 0.2
2017-Oct-19 10:00N 70°05' E 020°10'0 0.4
2017-Oct-19 09:29N 70°05' E 020°11'1 1.1
2017-Oct-19 08:59N 70°06' E 020°12'0 0.4
2017-Oct-19 08:30N 70°06' E 020°11'0 0.9
2017-Oct-19 08:00N 70°05' E 020°12'0 0.3
2017-Oct-19 07:30N 70°05' E 020°12'0 0.3
2017-Oct-19 07:00N 70°05' E 020°11'1 2.5
2017-Oct-19 06:30N 70°06' E 020°13'5 9.6
2017-Oct-19 06:00N 70°10' E 020°22'0 0.8
2017-Oct-19 05:30N 70°10' E 020°23'1 1.5
2017-Oct-19 05:00N 70°10' E 020°22'0 0.3
2017-Oct-19 04:30N 70°10' E 020°22'0 0.3
2017-Oct-19 03:59N 70°10' E 020°22'2 3.4
2017-Oct-19 03:30N 70°08' E 020°18'4 8.2
2017-Oct-19 03:00N 70°06' E 020°09'4 6.7
2017-Oct-19 02:29N 70°04' E 019°60'0 0.0
2017-Oct-19 01:59N 70°04' E 019°60'0 0.0
2017-Oct-19 01:29N 70°04' E 019°60'0 0.0
2017-Oct-19 00:59N 70°04' E 019°60'0 0.0
2017-Oct-19 00:29N 70°04' E 019°60'0 0.0
2017-Oct-18 23:59N 70°04' E 019°60'0 0.0
2017-Oct-18 23:29N 70°04' E 019°60'0 0.0
2017-Oct-18 22:59N 70°04' E 019°60'0 0.0
2017-Oct-18 22:29N 70°04' E 019°60'0 0.0
2017-Oct-18 21:59N 70°04' E 019°60'0 0.0
2017-Oct-18 21:29N 70°04' E 019°60'0 0.0
2017-Oct-18 20:59N 70°04' E 019°60'0 0.0
2017-Oct-18 20:29N 70°04' E 019°60'0 0.0
2017-Oct-18 19:59N 70°04' E 019°60'0 0.0
2017-Oct-18 19:29N 70°04' E 019°60'0 0.0
2017-Oct-18 18:59N 70°04' E 019°60'0 0.0
2017-Oct-18 18:29N 70°04' E 019°60'0 0.0
2017-Oct-18 17:59N 70°04' E 019°60'0 0.0
2017-Oct-18 17:29N 70°04' E 019°60'0 0.0
2017-Oct-18 16:59N 70°04' E 019°60'0 0.0
2017-Oct-18 16:29N 70°04' E 019°60'0 0.0
2017-Oct-18 15:59N 70°04' E 019°60'0 0.0
2017-Oct-18 15:29N 70°04' E 019°60'0 0.0
2017-Oct-18 14:59N 70°04' E 019°60'0 0.0
2017-Oct-18 13:59N 70°04' E 019°60'0 0.0
2017-Oct-18 13:29N 70°04' E 019°60'0 0.0
2017-Oct-18 12:59N 70°04' E 019°60'0 0.0
2017-Oct-18 12:29N 70°04' E 019°60'0 0.0
2017-Oct-18 11:59N 70°04' E 019°60'0 0.0
2017-Oct-18 11:29N 70°04' E 019°60'0 0.0
2017-Oct-18 10:59N 70°04' E 019°60'0 0.0
2017-Oct-18 10:29N 70°04' E 019°60'0 0.0
2017-Oct-18 09:59N 70°04' E 019°60'0 0.0
2017-Oct-18 09:29N 70°04' E 019°60'0 0.0
2017-Oct-18 08:59N 70°04' E 019°60'0 0.0
2017-Oct-18 08:29N 70°04' E 019°60'0 0.0
2017-Oct-18 07:59N 70°04' E 019°60'0 0.0
2017-Oct-18 07:29N 70°04' E 019°60'0 0.0
2017-Oct-18 06:59N 70°04' E 019°60'0 0.0
2017-Oct-18 06:29N 70°04' E 019°60'0 0.0
2017-Oct-18 05:59N 70°04' E 019°60'0 0.0
2017-Oct-18 05:29N 70°04' E 019°60'0 0.0
2017-Oct-18 04:59N 70°04' E 019°60'0 0.0
2017-Oct-18 04:26N 70°04' E 019°60'0 0.0
2017-Oct-18 03:59N 70°04' E 019°60'0 0.0
2017-Oct-18 03:29N 70°04' E 019°60'0 0.0
2017-Oct-18 02:59N 70°04' E 019°60'0 0.0
2017-Oct-18 02:29N 70°04' E 019°60'0 0.0
2017-Oct-18 01:59N 70°04' E 019°60'0 0.0
2017-Oct-18 01:29N 70°04' E 019°60'0 0.0
2017-Oct-18 00:59N 70°04' E 019°60'0 0.0
2017-Oct-18 00:29N 70°04' E 019°60'0 0.0
2017-Oct-17 23:59N 70°04' E 019°60'0 0.0
2017-Oct-17 23:29N 70°04' E 019°60'0 0.0
2017-Oct-17 22:59N 70°04' E 019°60'0 0.0
2017-Oct-17 22:29N 70°04' E 019°60'0 0.0
2017-Oct-17 21:59N 70°04' E 019°60'0 0.0
2017-Oct-17 21:29N 70°04' E 019°60'0 0.0
2017-Oct-17 20:59N 70°04' E 019°60'0 0.0
2017-Oct-17 20:29N 70°04' E 019°60'0 0.0
2017-Oct-17 19:59N 70°04' E 019°60'0 0.0
2017-Oct-17 19:29N 70°04' E 019°60'0 0.0
2017-Oct-17 18:59N 70°04' E 019°60'0 0.0
2017-Oct-17 18:29N 70°04' E 019°60'0 0.0
2017-Oct-17 17:59N 70°04' E 019°60'0 0.0
2017-Oct-17 17:29N 70°04' E 019°60'0 0.0
2017-Oct-17 16:59N 70°04' E 019°60'0 0.0
2017-Oct-17 16:29N 70°04' E 019°60'0 0.0
2017-Oct-17 15:59N 70°04' E 019°60'0 0.0
2017-Oct-17 15:28N 70°04' E 019°60'0 0.0
2017-Oct-17 14:58N 70°04' E 019°60'0 0.0
2017-Oct-17 14:28N 70°04' E 019°60'0 0.0
2017-Oct-17 13:58N 70°04' E 019°60'0 0.0
2017-Oct-17 13:28N 70°04' E 019°60'0 0.1
2017-Oct-17 13:00N 70°04' E 019°60'2 3.6
2017-Oct-17 12:30N 70°05' E 020°05'1 2.7
2017-Oct-17 12:00N 70°05' E 020°09'1 1.5
2017-Oct-17 11:29N 70°05' E 020°11'0 0.3
2017-Oct-17 11:00N 70°05' E 020°11'0 1.0
2017-Oct-17 10:30N 70°05' E 020°12'0 0.5
2017-Oct-17 10:00N 70°05' E 020°12'0 0.5
2017-Oct-17 09:29N 70°05' E 020°12'0 0.6
2017-Oct-17 09:00N 70°05' E 020°12'0 0.6
2017-Oct-17 08:30N 70°06' E 020°12'4 8.0
2017-Oct-17 08:00N 70°10' E 020°14'1 1.3
2017-Oct-17 07:30N 70°10' E 020°14'0 0.8
2017-Oct-17 07:00N 70°11' E 020°14'3 5.0
2017-Oct-17 06:30N 70°10' E 020°21'0 0.4
2017-Oct-17 06:00N 70°10' E 020°22'0 0.7
2017-Oct-17 05:30N 70°10' E 020°22'0 0.5
2017-Oct-17 05:00N 70°10' E 020°22'1 1.6
2017-Oct-17 04:30N 70°11' E 020°23'0 0.2
2017-Oct-17 04:00N 70°11' E 020°23'4 7.9
2017-Oct-17 03:29N 70°08' E 020°15'4 8.3
2017-Oct-17 03:00N 70°05' E 020°06'2 4.3
2017-Oct-17 02:28N 70°04' E 019°60'0 0.0
2017-Oct-17 01:58N 70°04' E 019°60'0 0.0
2017-Oct-17 01:28N 70°04' E 019°60'0 0.0
2017-Oct-17 00:58N 70°04' E 019°60'0 0.0
2017-Oct-17 00:28N 70°04' E 019°60'0 0.0
2017-Oct-16 23:58N 70°04' E 019°60'0 0.0
2017-Oct-16 23:28N 70°04' E 019°60'0 0.0
2017-Oct-16 22:58N 70°04' E 019°60'0 0.0
2017-Oct-16 22:28N 70°04' E 019°60'0 0.0
2017-Oct-16 22:01N 70°04' E 019°60'0 0.0
2017-Oct-16 21:31N 70°04' E 019°60'0 0.0
2017-Oct-16 21:01N 70°04' E 019°60'0 0.0
2017-Oct-16 20:28N 70°04' E 019°60'0 0.0
2017-Oct-16 20:01N 70°04' E 019°60'0 0.0
2017-Oct-16 19:31N 70°04' E 019°60'0 0.0
2017-Oct-16 19:00N 70°04' E 019°60'0 0.0
2017-Oct-16 18:31N 70°04' E 019°60'0 0.0
2017-Oct-16 18:01N 70°04' E 019°60'0 0.0
2017-Oct-16 17:30N 70°04' E 019°60'0 0.0
2017-Oct-16 17:01N 70°04' E 019°60'0 0.0
2017-Oct-16 16:31N 70°04' E 019°60'0 0.0
2017-Oct-16 16:01N 70°04' E 019°60'0 0.0
2017-Oct-16 15:31N 70°04' E 019°60'3 5.1
2017-Oct-16 15:00N 70°05' E 020°07'7 7.4
2017-Oct-16 14:00N 70°12' E 019°55'4 8.2
2017-Oct-16 13:31N 70°13' E 019°44'0 0.7
2017-Oct-16 13:00N 70°14' E 019°44'0 0.0
2017-Oct-16 12:30N 70°14' E 019°44'0 0.0
2017-Oct-16 12:00N 70°14' E 019°44'0 0.0
2017-Oct-16 11:30N 70°14' E 019°44'0 0.0
2017-Oct-16 11:00N 70°14' E 019°44'0 0.0
2017-Oct-16 10:29N 70°14' E 019°44'0 0.0
2017-Oct-16 09:59N 70°14' E 019°44'0 0.0
2017-Oct-16 09:26N 70°14' E 019°44'0 0.0
2017-Oct-16 08:59N 70°14' E 019°44'0 0.0
2017-Oct-16 08:29N 70°14' E 019°44'3 6.3
2017-Oct-16 08:00N 70°13' E 019°52'4 8.3
2017-Oct-16 07:30N 70°09' E 019°59'4 9.1
2017-Oct-16 07:00N 70°06' E 020°08'3 6.6
2017-Oct-16 06:29N 70°04' E 019°60'0 0.0
2017-Oct-16 06:00N 70°04' E 019°60'0 0.1
2017-Oct-16 05:26N 70°04' E 019°60'0 0.0
2017-Oct-16 04:59N 70°04' E 019°60'0 0.0
2017-Oct-16 04:29N 70°04' E 019°60'0 0.0
2017-Oct-16 03:59N 70°04' E 019°60'0 0.0
2017-Oct-16 03:29N 70°04' E 019°60'0 0.0
2017-Oct-16 02:59N 70°04' E 019°60'0 0.0
2017-Oct-16 02:29N 70°04' E 019°60'0 0.0
2017-Oct-16 01:59N 70°04' E 019°60'0 0.0
2017-Oct-16 01:29N 70°04' E 019°60'0 0.0
2017-Oct-16 00:59N 70°04' E 019°60'0 0.0
2017-Oct-16 00:29N 70°04' E 019°60'0 0.0
2017-Oct-15 23:59N 70°04' E 019°60'0 0.0
2017-Oct-15 23:29N 70°04' E 019°60'0 0.0
2017-Oct-15 22:59N 70°04' E 019°60'0 0.0
2017-Oct-15 22:29N 70°04' E 019°60'0 0.0
2017-Oct-15 21:59N 70°04' E 019°60'0 0.0
2017-Oct-15 21:30N 70°04' E 019°60'0 0.0
2017-Oct-15 20:59N 70°04' E 019°60'0 0.0
2017-Oct-15 20:29N 70°04' E 019°60'0 0.0
2017-Oct-15 19:59N 70°04' E 019°60'0 0.0
2017-Oct-15 19:29N 70°04' E 019°60'0 0.0
2017-Oct-15 18:59N 70°04' E 019°60'0 0.0
2017-Oct-15 18:29N 70°04' E 019°60'0 0.0
2017-Oct-15 17:59N 70°04' E 019°60'0 0.0
2017-Oct-15 17:29N 70°04' E 019°60'0 0.0
2017-Oct-15 16:59N 70°04' E 019°60'0 0.0
2017-Oct-15 16:29N 70°04' E 019°60'0 0.0
2017-Oct-15 15:59N 70°04' E 019°60'0 0.0
2017-Oct-15 15:29N 70°04' E 019°60'0 0.0
2017-Oct-15 14:59N 70°04' E 019°60'0 0.0
2017-Oct-15 13:59N 70°04' E 019°60'2 3.5
2017-Oct-15 13:30N 70°05' E 020°04'1 2.7
2017-Oct-15 13:00N 70°05' E 020°08'1 1.8
2017-Oct-15 12:30N 70°05' E 020°11'0 0.1
2017-Oct-15 12:00N 70°05' E 020°11'0 0.7
2017-Oct-15 11:30N 70°05' E 020°12'0 0.4
2017-Oct-15 11:00N 70°05' E 020°11'0 0.3
2017-Oct-15 10:29N 70°05' E 020°12'0 0.3
2017-Oct-15 10:00N 70°05' E 020°11'4 7.4
2017-Oct-15 09:30N 70°09' E 020°13'1 2.4
2017-Oct-15 09:00N 70°10' E 020°14'0 0.6
2017-Oct-15 08:30N 70°10' E 020°15'0 0.5
2017-Oct-15 08:00N 70°11' E 020°14'2 4.8
2017-Oct-15 07:29N 70°10' E 020°21'0 0.6
2017-Oct-15 06:59N 70°10' E 020°22'0 0.4
2017-Oct-15 06:29N 70°10' E 020°22'0 0.3
2017-Oct-15 06:00N 70°10' E 020°22'1 1.4
2017-Oct-15 05:30N 70°11' E 020°23'1 1.7
2017-Oct-15 05:00N 70°10' E 020°22'4 9.1
2017-Oct-15 04:30N 70°07' E 020°12'4 8.3
2017-Oct-15 04:00N 70°05' E 020°01'1 1.3
2017-Oct-15 03:29N 70°04' E 019°60'0 0.0
2017-Oct-15 02:59N 70°04' E 019°60'0 0.0
2017-Oct-15 02:29N 70°04' E 019°60'0 0.0
2017-Oct-15 01:58N 70°04' E 019°60'0 0.0
2017-Oct-15 01:28N 70°04' E 019°60'0 0.0
2017-Oct-15 00:59N 70°04' E 019°60'0 0.0
2017-Oct-15 00:28N 70°04' E 019°60'0 0.0
2017-Oct-14 23:59N 70°04' E 019°60'0 0.0
2017-Oct-14 23:29N 70°04' E 019°60'0 0.0
2017-Oct-14 22:58N 70°04' E 019°60'0 0.0
2017-Oct-14 22:29N 70°04' E 019°60'0 0.0
2017-Oct-14 21:58N 70°04' E 019°60'0 0.0
2017-Oct-14 21:28N 70°04' E 019°60'0 0.0
2017-Oct-14 20:59N 70°04' E 019°60'0 0.0
2017-Oct-14 20:29N 70°04' E 019°60'0 0.0
2017-Oct-14 19:59N 70°04' E 019°60'0 0.0
2017-Oct-14 19:29N 70°04' E 019°60'0 0.0
2017-Oct-14 18:58N 70°04' E 019°60'0 0.0
2017-Oct-14 18:28N 70°04' E 019°60'0 0.0
2017-Oct-14 17:59N 70°04' E 019°60'0 0.0
2017-Oct-14 17:29N 70°04' E 019°60'0 0.0
2017-Oct-14 16:59N 70°04' E 019°60'0 0.0
2017-Oct-14 16:29N 70°04' E 019°60'0 0.0
2017-Oct-14 15:58N 70°04' E 019°60'0 0.0
2017-Oct-14 15:29N 70°04' E 019°60'0 0.0
2017-Oct-14 14:58N 70°04' E 019°60'0 0.0
2017-Oct-14 14:29N 70°04' E 019°60'0 0.0
2017-Oct-14 13:58N 70°04' E 019°60'0 0.0
2017-Oct-14 13:28N 70°04' E 019°60'0 0.0
2017-Oct-14 12:59N 70°04' E 019°60'0 0.0
2017-Oct-14 12:29N 70°04' E 019°60'0 0.0
2017-Oct-14 11:59N 70°04' E 019°60'0 0.0
2017-Oct-14 11:29N 70°04' E 019°60'0 0.0
2017-Oct-14 10:59N 70°04' E 019°60'0 0.0
2017-Oct-14 10:26N 70°04' E 019°60'0 0.0
2017-Oct-14 09:58N 70°04' E 019°60'0 0.0
2017-Oct-14 09:29N 70°04' E 019°60'0 0.0
2017-Oct-14 08:58N 70°04' E 019°60'0 0.0
2017-Oct-14 08:29N 70°04' E 019°60'0 0.0
2017-Oct-14 07:59N 70°04' E 019°60'0 0.0
2017-Oct-14 07:29N 70°04' E 019°60'0 0.0
2017-Oct-14 06:59N 70°04' E 019°60'0 0.0
2017-Oct-14 06:29N 70°04' E 019°60'0 0.0
2017-Oct-14 05:59N 70°04' E 019°60'0 0.0
2017-Oct-14 05:29N 70°04' E 019°60'0 0.0
2017-Oct-14 04:59N 70°04' E 019°60'0 0.0
2017-Oct-14 04:29N 70°04' E 019°60'0 0.0
2017-Oct-14 03:59N 70°04' E 019°60'0 0.0
2017-Oct-14 03:29N 70°04' E 019°60'0 0.0
2017-Oct-14 02:59N 70°04' E 019°60'0 0.0
2017-Oct-14 02:29N 70°04' E 019°60'0 0.0
2017-Oct-14 01:59N 70°04' E 019°60'0 0.0
2017-Oct-14 01:29N 70°04' E 019°60'0 0.0
2017-Oct-14 00:58N 70°04' E 019°60'0 0.0
2017-Oct-14 00:29N 70°04' E 019°60'0 0.0
2017-Oct-13 23:59N 70°04' E 019°60'0 0.0
2017-Oct-13 23:28N 70°04' E 019°60'0 0.0
2017-Oct-13 22:58N 70°04' E 019°60'0 0.0
2017-Oct-13 22:29N 70°04' E 019°60'0 0.0
2017-Oct-13 21:59N 70°04' E 019°60'0 0.0
2017-Oct-13 21:29N 70°04' E 019°60'0 0.0
2017-Oct-13 20:59N 70°04' E 019°60'0 0.0
2017-Oct-13 20:28N 70°04' E 019°60'0 0.0
2017-Oct-13 19:59N 70°04' E 019°60'0 0.0
2017-Oct-13 19:28N 70°04' E 019°60'0 0.0
2017-Oct-13 18:58N 70°04' E 019°60'0 0.0
2017-Oct-13 18:29N 70°04' E 019°60'0 0.0
2017-Oct-13 17:58N 70°04' E 019°60'0 0.0
2017-Oct-13 17:29N 70°04' E 019°60'0 0.0
2017-Oct-13 16:59N 70°04' E 019°60'0 0.0
2017-Oct-13 16:29N 70°04' E 019°60'0 0.0
2017-Oct-13 15:59N 70°04' E 019°60'0 0.0
2017-Oct-13 15:28N 70°04' E 019°60'0 0.0
2017-Oct-13 14:59N 70°04' E 019°60'0 0.0
2017-Oct-13 14:28N 70°04' E 019°60'0 0.0
2017-Oct-13 13:59N 70°04' E 019°60'0 0.0
2017-Oct-13 13:29N 70°04' E 019°60'0 0.0
2017-Oct-13 12:59N 70°04' E 019°60'0 0.0
2017-Oct-13 12:29N 70°04' E 019°60'0 0.1
2017-Oct-13 12:00N 70°04' E 019°60'1 2.2
2017-Oct-13 11:30N 70°05' E 020°03'2 3.9
2017-Oct-13 11:00N 70°05' E 020°08'1 1.9
2017-Oct-13 10:30N 70°05' E 020°11'0 0.9
2017-Oct-13 10:00N 70°05' E 020°12'0 0.4
2017-Oct-13 09:29N 70°05' E 020°12'0 0.3
2017-Oct-13 08:59N 70°05' E 020°12'0 0.6
2017-Oct-13 08:30N 70°05' E 020°11'4 7.2
2017-Oct-13 08:00N 70°09' E 020°13'6 0.4
2017-Oct-12 16:23N 70°04' E 019°60'0 0.0
2017-Oct-12 15:58N 70°04' E 019°60'0 0.0
2017-Oct-12 15:28N 70°04' E 019°60'0 0.0
2017-Oct-12 14:58N 70°04' E 019°60'0 0.0
2017-Oct-12 14:28N 70°04' E 019°60'0 0.0
2017-Oct-12 13:58N 70°04' E 019°60'0 0.0
2017-Oct-12 13:28N 70°04' E 019°60'0 0.0
2017-Oct-12 12:58N 70°04' E 019°60'0 0.0
2017-Oct-12 12:28N 70°04' E 019°60'0 0.0
2017-Oct-12 11:55N 70°04' E 019°60'0 0.0
2017-Oct-12 11:28N 70°04' E 019°60'0 0.0
2017-Oct-12 10:58N 70°04' E 019°60'0 0.0
2017-Oct-12 10:28N 70°04' E 019°60'0 0.0
2017-Oct-12 09:58N 70°04' E 019°60'0 0.0
2017-Oct-12 09:28N 70°04' E 019°60'0 0.0
2017-Oct-12 08:58N 70°04' E 019°60'0 0.1
2017-Oct-12 08:29N 70°04' E 019°60'0 0.0
2017-Oct-12 07:59N 70°04' E 019°60'0 0.1
2017-Oct-12 07:28N 70°04' E 019°60'0 0.0
2017-Oct-12 07:00N 70°04' E 019°60'0 0.0
2017-Oct-12 06:30N 70°04' E 019°60'0 0.0
2017-Oct-12 06:00N 70°04' E 019°60'0 0.0
2017-Oct-12 05:30N 70°04' E 019°60'0 0.0
2017-Oct-12 05:00N 70°04' E 019°60'0 0.0
2017-Oct-12 04:30N 70°04' E 019°60'0 0.0
2017-Oct-12 04:00N 70°04' E 019°60'0 0.0
2017-Oct-12 03:30N 70°04' E 019°60'0 0.0
2017-Oct-12 03:00N 70°04' E 019°60'0 0.0
2017-Oct-12 02:30N 70°04' E 019°60'0 0.0
2017-Oct-12 02:00N 70°04' E 019°60'0 0.0
2017-Oct-12 01:30N 70°04' E 019°60'0 0.0
2017-Oct-12 01:00N 70°04' E 019°60'0 0.0
2017-Oct-12 00:30N 70°04' E 019°60'0 0.0
2017-Oct-12 00:00N 70°04' E 019°60'0 0.0
2017-Oct-11 23:30N 70°04' E 019°60'0 0.0
2017-Oct-11 23:00N 70°04' E 019°60'0 0.0
2017-Oct-11 22:30N 70°04' E 019°60'0 0.0
2017-Oct-11 22:00N 70°04' E 019°60'0 0.0
2017-Oct-11 21:30N 70°04' E 019°60'0 0.0
2017-Oct-11 21:00N 70°04' E 019°60'0 0.0
2017-Oct-11 20:30N 70°04' E 019°60'0 0.0
2017-Oct-11 19:58N 70°04' E 019°60'0 0.0
2017-Oct-11 19:28N 70°04' E 019°60'0 0.0
2017-Oct-11 18:58N 70°04' E 019°60'0 0.0
2017-Oct-11 18:28N 70°04' E 019°60'0 0.0
2017-Oct-11 17:58N 70°04' E 019°60'0 0.0
2017-Oct-11 17:28N 70°04' E 019°60'0 0.0
2017-Oct-11 16:55N 70°04' E 019°60'0 0.0
2017-Oct-10 23:59N 70°04' E 019°59'0 0.0
2017-Oct-10 23:29N 70°04' E 019°59'0 0.0
2017-Oct-10 22:59N 70°04' E 019°59'0 0.0
2017-Oct-10 22:29N 70°04' E 019°59'0 0.0
2017-Oct-10 21:59N 70°04' E 019°59'0 0.0
2017-Oct-10 21:29N 70°04' E 019°59'0 0.0
2017-Oct-10 20:59N 70°04' E 019°59'0 0.0
2017-Oct-10 20:29N 70°04' E 019°59'0 0.0
2017-Oct-10 19:59N 70°04' E 019°59'0 0.0
2017-Oct-10 19:29N 70°04' E 019°59'0 0.0
2017-Oct-10 18:59N 70°04' E 019°59'0 0.0
2017-Oct-10 18:29N 70°04' E 019°59'0 0.0
2017-Oct-10 17:59N 70°04' E 019°59'0 0.0
2017-Oct-10 17:29N 70°04' E 019°59'0 0.0
2017-Oct-10 16:59N 70°04' E 019°59'0 0.0
2017-Oct-10 16:29N 70°04' E 019°59'0 0.0
2017-Oct-10 15:59N 70°04' E 019°59'0 0.0
2017-Oct-10 15:29N 70°04' E 019°59'0 0.0
2017-Oct-10 14:59N 70°04' E 019°59'0 0.0
2017-Oct-10 13:56N 70°04' E 019°59'0 0.0
2017-Oct-10 13:29N 70°04' E 019°59'0 0.0
2017-Oct-10 12:59N 70°04' E 019°59'0 0.0
2017-Oct-10 12:29N 70°04' E 019°59'0 0.0
2017-Oct-10 11:59N 70°04' E 019°59'0 0.0
2017-Oct-10 11:29N 70°04' E 019°59'0 0.0
2017-Oct-10 10:59N 70°04' E 019°59'0 0.0
2017-Oct-10 10:29N 70°04' E 019°59'0 0.0
2017-Oct-10 09:59N 70°04' E 019°59'0 0.0
2017-Oct-10 09:29N 70°04' E 019°59'0 0.0
2017-Oct-10 08:59N 70°04' E 019°59'0 0.0
2017-Oct-10 08:29N 70°04' E 019°59'0 0.0
2017-Oct-10 07:59N 70°04' E 019°59'0 0.0
2017-Oct-10 07:29N 70°04' E 019°59'0 0.0
2017-Oct-10 06:59N 70°04' E 019°59'0 0.0
2017-Oct-10 06:29N 70°04' E 019°59'0 0.0
2017-Oct-10 05:59N 70°04' E 019°59'0 0.0
2017-Oct-10 05:29N 70°04' E 019°59'  

Dump ship's entire track history